F/V Manbrisa — FMGR — position and weather

sailwx.info

Track history (hours):
 
Tides and Currents Weather Stations Pressure Air Temp Water Temp Dewpoint Dewpoint Depression Visibility Wind Speed Wind Dir Waves Ship Positions

F/V Manbrisa

Last reported at 2018-Feb-24 12:00 UTC. Time now 2018-Feb-24 12:17 UTC.
Position N 44°31' W 001°29'.

Length 18 m.

Type: Fishing. MMSI: 228229900.

Date/timePositionNaut miles runAvg speedWind from/ knotsBaromVisibWave heightAir tempDewpointWater temp
2018-Feb-24 12:00N 44°31' W 001°29'0 0.5
2018-Feb-24 11:24N 44°31' W 001°29'0 0.2
2018-Feb-24 11:01N 44°31' W 001°29'1 1.3
2018-Feb-24 10:11N 44°31' W 001°30'0 1.8
2018-Feb-24 10:00N 44°31' W 001°30'1 1.7
2018-Feb-24 09:30N 44°32' W 001°31'0 0.6
2018-Feb-24 09:01N 44°32' W 001°30'0 0.9
2018-Feb-24 08:30N 44°32' W 001°30'1 1.7
2018-Feb-24 08:00N 44°33' W 001°30'1 2.9
2018-Feb-24 07:30N 44°34' W 001°29'2 4.7
2018-Feb-24 07:00N 44°35' W 001°32'510.1
2018-Feb-24 06:31N 44°40' W 001°33'5 9.9
2018-Feb-24 06:01N 44°45' W 001°34'5 9.8
2018-Feb-24 05:28N 44°50' W 001°35'4 9.8
2018-Feb-24 05:00N 44°55' W 001°35'68 9.7
2018-Feb-23 22:00N 46°03' W 001°44'5 9.9
2018-Feb-23 21:28N 46°08' W 001°44'5 9.9
2018-Feb-23 21:00N 46°13' W 001°45'5 9.9
2018-Feb-23 20:30N 46°18' W 001°46'5 9.9
2018-Feb-23 20:00N 46°22' W 001°46'5 9.6
2018-Feb-23 19:30N 46°27' W 001°47'3 5.4
2018-Feb-23 19:00N 46°30' W 001°48'0 0.0
2018-Feb-23 18:30N 46°30' W 001°48'0 0.0
2018-Feb-23 18:00N 46°30' W 001°48'0 0.0
2018-Feb-23 17:30N 46°30' W 001°48'0 0.0
2018-Feb-23 17:00N 46°30' W 001°48'0 0.0
2018-Feb-23 16:30N 46°30' W 001°48'0 0.0
2018-Feb-23 16:00N 46°30' W 001°48'0 0.0
2018-Feb-23 15:30N 46°30' W 001°48'0 0.0
2018-Feb-23 15:00N 46°30' W 001°48'0 0.0
2018-Feb-23 14:30N 46°30' W 001°48'0 0.0
2018-Feb-23 14:00N 46°30' W 001°48'0 0.0
2018-Feb-23 13:30N 46°30' W 001°48'0 0.1
2018-Feb-23 13:00N 46°30' W 001°48'0 0.1
2018-Feb-23 12:30N 46°30' W 001°48'0 0.0
2018-Feb-23 12:00N 46°30' W 001°48'0 0.0
2018-Feb-23 11:30N 46°30' W 001°48'3 5.3
2018-Feb-23 11:00N 46°27' W 001°47'1 2.6
2018-Feb-23 10:30N 46°28' W 001°48'2 3.6
2018-Feb-23 10:00N 46°30' W 001°47'0 0.0
2018-Feb-23 09:30N 46°30' W 001°47'0 0.0
2018-Feb-23 09:00N 46°30' W 001°47'0 0.0
2018-Feb-23 08:30N 46°30' W 001°47'0 0.0
2018-Feb-23 08:00N 46°30' W 001°47'0 0.1
2018-Feb-23 07:30N 46°30' W 001°47'0 0.0
2018-Feb-23 07:00N 46°30' W 001°47'0 0.0
2018-Feb-23 06:30N 46°30' W 001°47'0 0.0
2018-Feb-23 06:00N 46°30' W 001°47'0 0.0
2018-Feb-23 05:30N 46°30' W 001°47'0 0.0
2018-Feb-23 05:00N 46°30' W 001°47'0 0.0
2018-Feb-23 04:30N 46°30' W 001°47'0 0.0
2018-Feb-23 04:00N 46°30' W 001°47'0 0.0
2018-Feb-23 03:30N 46°30' W 001°47'0 0.0
2018-Feb-23 03:00N 46°30' W 001°47'0 0.0
2018-Feb-23 02:30N 46°30' W 001°47'0 0.0
2018-Feb-23 02:00N 46°30' W 001°47'0 0.0
2018-Feb-23 01:30N 46°30' W 001°47'0 0.0
2018-Feb-23 01:00N 46°30' W 001°47'0 0.0
2018-Feb-23 00:30N 46°30' W 001°47'0 0.0
2018-Feb-23 00:00N 46°30' W 001°47'0 0.0
2018-Feb-22 23:30N 46°30' W 001°47'0 0.0
2018-Feb-22 23:00N 46°30' W 001°47'0 0.0
2018-Feb-22 22:30N 46°30' W 001°47'0 0.0
2018-Feb-22 22:00N 46°30' W 001°47'0 0.0
2018-Feb-22 21:30N 46°30' W 001°47'0 0.0
2018-Feb-22 21:00N 46°30' W 001°47'0 0.0
2018-Feb-22 20:30N 46°30' W 001°47'0 0.0
2018-Feb-22 20:00N 46°30' W 001°47'0 0.0
2018-Feb-22 19:30N 46°30' W 001°47'0 0.0
2018-Feb-22 19:00N 46°30' W 001°47'0 0.0
2018-Feb-22 18:30N 46°30' W 001°47'0 0.0
2018-Feb-22 18:00N 46°30' W 001°47'0 0.0
2018-Feb-22 17:30N 46°30' W 001°47'0 0.0
2018-Feb-22 17:00N 46°30' W 001°47'0 0.0
2018-Feb-22 16:30N 46°30' W 001°47'0 0.0
2018-Feb-22 16:00N 46°30' W 001°47'0 0.0
2018-Feb-22 15:30N 46°30' W 001°47'0 0.0
2018-Feb-22 15:00N 46°30' W 001°47'0 0.0
2018-Feb-22 14:30N 46°30' W 001°47'0 0.0
2018-Feb-22 14:00N 46°30' W 001°47'0 0.0
2018-Feb-22 13:30N 46°30' W 001°47'0 0.0
2018-Feb-22 13:00N 46°30' W 001°47'0 0.0
2018-Feb-22 12:30N 46°30' W 001°47'0 0.0
2018-Feb-22 12:00N 46°30' W 001°47'0 0.0
2018-Feb-22 11:30N 46°30' W 001°47'0 0.0
2018-Feb-22 11:00N 46°30' W 001°47'0 0.0
2018-Feb-22 10:30N 46°30' W 001°47'0 0.0
2018-Feb-22 10:00N 46°30' W 001°47'0 0.0
2018-Feb-22 09:30N 46°30' W 001°47'0 0.0
2018-Feb-22 09:00N 46°30' W 001°47'0 0.0
2018-Feb-22 08:30N 46°30' W 001°47'0 0.1
2018-Feb-22 08:00N 46°30' W 001°47'0 0.0
2018-Feb-22 07:30N 46°30' W 001°47'0 0.1
2018-Feb-22 07:00N 46°30' W 001°47'0 0.0
2018-Feb-22 06:30N 46°30' W 001°47'0 0.0
2018-Feb-22 06:00N 46°30' W 001°47'0 0.0
2018-Feb-22 05:30N 46°30' W 001°47'0 0.0
2018-Feb-22 05:00N 46°30' W 001°47'0 0.0
2018-Feb-22 04:30N 46°30' W 001°47'0 0.0
2018-Feb-22 03:59N 46°30' W 001°47'0 0.0
2018-Feb-22 03:30N 46°30' W 001°47'0 0.0
2018-Feb-22 03:00N 46°30' W 001°47'0 0.0
2018-Feb-22 02:30N 46°30' W 001°47'0 0.0
2018-Feb-22 02:00N 46°30' W 001°47'0 0.0
2018-Feb-22 01:30N 46°30' W 001°47'0 0.0
2018-Feb-22 01:00N 46°30' W 001°47'0 0.0
2018-Feb-22 00:30N 46°30' W 001°47'0 0.0
2018-Feb-22 00:00N 46°30' W 001°47'0 0.0
2018-Feb-21 23:30N 46°30' W 001°47'0 0.0
2018-Feb-21 23:00N 46°30' W 001°47'0 0.0
2018-Feb-21 22:29N 46°30' W 001°47'0 0.0
2018-Feb-21 22:00N 46°30' W 001°47'0 0.0
2018-Feb-21 21:30N 46°30' W 001°47'0 0.0
2018-Feb-21 21:00N 46°30' W 001°47'0 0.0
2018-Feb-21 20:30N 46°30' W 001°47'0 0.0
2018-Feb-21 20:00N 46°30' W 001°47'0 0.0
2018-Feb-21 19:30N 46°30' W 001°47'0 0.0
2018-Feb-21 19:00N 46°30' W 001°47'0 0.0
2018-Feb-21 18:30N 46°30' W 001°47'0 0.0
2018-Feb-21 18:00N 46°30' W 001°47'0 0.0
2018-Feb-21 17:30N 46°30' W 001°47'0 0.0
2018-Feb-21 17:00N 46°30' W 001°47'0 0.0
2018-Feb-21 16:30N 46°30' W 001°47'0 0.0
2018-Feb-21 16:00N 46°30' W 001°47'0 0.0
2018-Feb-21 15:30N 46°30' W 001°47'0 0.0
2018-Feb-21 15:00N 46°30' W 001°47'0 0.0
2018-Feb-21 14:30N 46°30' W 001°47'0 0.0
2018-Feb-21 14:00N 46°30' W 001°47'0 0.0
2018-Feb-21 13:30N 46°30' W 001°47'0 0.0
2018-Feb-21 13:00N 46°30' W 001°47'0 0.0
2018-Feb-21 12:30N 46°30' W 001°47'0 0.0
2018-Feb-21 12:00N 46°30' W 001°47'0 0.0
2018-Feb-21 11:30N 46°30' W 001°47'0 0.0
2018-Feb-21 10:58N 46°30' W 001°47'0 0.0
2018-Feb-21 10:30N 46°30' W 001°47'0 0.0
2018-Feb-21 09:59N 46°30' W 001°47'0 0.0
2018-Feb-21 09:30N 46°30' W 001°47'0 0.0
2018-Feb-21 09:00N 46°30' W 001°47'0 0.0
2018-Feb-21 08:30N 46°30' W 001°47'0 0.0
2018-Feb-21 08:00N 46°30' W 001°47'0 0.0
2018-Feb-21 07:30N 46°30' W 001°47'0 0.0
2018-Feb-21 07:00N 46°30' W 001°47'0 0.0
2018-Feb-21 06:30N 46°30' W 001°47'0 0.0
2018-Feb-21 06:00N 46°30' W 001°47'0 0.0
2018-Feb-21 05:30N 46°30' W 001°47'0 0.0
2018-Feb-21 05:00N 46°30' W 001°47'0 0.0
2018-Feb-21 04:29N 46°30' W 001°47'0 0.0
2018-Feb-21 04:00N 46°30' W 001°47'0 0.0
2018-Feb-21 03:30N 46°30' W 001°47'0 0.0
2018-Feb-21 03:00N 46°30' W 001°47'0 0.0
2018-Feb-21 02:30N 46°30' W 001°47'0 0.0
2018-Feb-21 02:00N 46°30' W 001°47'0 0.0
2018-Feb-21 01:30N 46°30' W 001°47'0 0.0
2018-Feb-21 01:00N 46°30' W 001°47'0 0.0
2018-Feb-21 00:30N 46°30' W 001°47'0 0.0
2018-Feb-21 00:00N 46°30' W 001°47'0 0.0
2018-Feb-20 23:30N 46°30' W 001°47'0 0.0
2018-Feb-20 23:00N 46°30' W 001°47'0 0.0
2018-Feb-20 22:30N 46°30' W 001°47'0 0.0
2018-Feb-20 22:00N 46°30' W 001°47'0 0.0
2018-Feb-20 21:30N 46°30' W 001°47'0 0.0
2018-Feb-20 21:00N 46°30' W 001°47'0 0.0
2018-Feb-20 20:30N 46°30' W 001°47'0 0.0
2018-Feb-20 20:00N 46°30' W 001°47'0 0.0
2018-Feb-20 19:30N 46°30' W 001°47'0 0.0
2018-Feb-20 19:00N 46°30' W 001°47'0 0.0
2018-Feb-20 18:30N 46°30' W 001°47'0 0.0
2018-Feb-20 18:00N 46°30' W 001°47'0 0.0
2018-Feb-20 17:30N 46°30' W 001°47'0 0.0
2018-Feb-20 17:00N 46°30' W 001°47'0 0.0
2018-Feb-20 16:29N 46°30' W 001°47'0 0.0
2018-Feb-20 16:00N 46°30' W 001°47'0 0.0
2018-Feb-20 15:30N 46°30' W 001°47'0 0.0
2018-Feb-20 15:00N 46°30' W 001°47'0 0.0
2018-Feb-20 14:30N 46°30' W 001°47'0 0.0
2018-Feb-20 14:00N 46°30' W 001°47'0 0.0
2018-Feb-20 13:30N 46°30' W 001°47'0 0.0
2018-Feb-20 13:00N 46°30' W 001°47'0 0.0
2018-Feb-20 12:30N 46°30' W 001°47'0 0.0
2018-Feb-20 12:00N 46°30' W 001°47'0 0.0
2018-Feb-20 11:30N 46°30' W 001°47'0 0.0
2018-Feb-20 11:00N 46°30' W 001°47'0 0.0
2018-Feb-20 10:30N 46°30' W 001°47'0 0.0
2018-Feb-20 09:59N 46°30' W 001°47'0 0.0
2018-Feb-20 09:30N 46°30' W 001°47'0 0.0
2018-Feb-20 09:00N 46°30' W 001°47'0 0.0
2018-Feb-20 08:30N 46°30' W 001°47'0 0.0
2018-Feb-20 08:00N 46°30' W 001°47'0 0.0
2018-Feb-20 07:30N 46°30' W 001°47'0 0.0
2018-Feb-20 07:00N 46°30' W 001°47'0 0.0
2018-Feb-20 06:30N 46°30' W 001°47'0 0.0
2018-Feb-20 06:00N 46°30' W 001°47'0 0.0
2018-Feb-20 05:30N 46°30' W 001°47'0 0.0
2018-Feb-20 05:00N 46°30' W 001°47'0 0.0
2018-Feb-20 04:30N 46°30' W 001°47'0 0.0
2018-Feb-20 04:00N 46°30' W 001°47'0 0.0
2018-Feb-20 03:30N 46°30' W 001°47'0 0.0
2018-Feb-20 03:00N 46°30' W 001°47'0 0.0
2018-Feb-20 02:30N 46°30' W 001°47'0 0.0
2018-Feb-20 02:00N 46°30' W 001°47'0 0.0
2018-Feb-20 01:30N 46°30' W 001°47'0 0.0
2018-Feb-20 01:00N 46°30' W 001°47'0 0.0
2018-Feb-20 00:30N 46°30' W 001°47'0 0.0
2018-Feb-20 00:00N 46°30' W 001°47'0 0.0
2018-Feb-19 23:30N 46°30' W 001°47'0 0.0
2018-Feb-19 23:00N 46°30' W 001°47'0 0.0
2018-Feb-19 22:30N 46°30' W 001°47'0 0.0
2018-Feb-19 22:00N 46°30' W 001°47'0 0.0
2018-Feb-19 21:30N 46°30' W 001°47'0 0.0
2018-Feb-19 21:00N 46°30' W 001°47'0 0.0
2018-Feb-19 20:30N 46°30' W 001°47'0 0.0
2018-Feb-19 20:00N 46°30' W 001°47'0 0.0
2018-Feb-19 19:30N 46°30' W 001°47'0 0.0
2018-Feb-19 19:00N 46°30' W 001°47'0 0.0
2018-Feb-19 18:30N 46°30' W 001°47'0 0.0
2018-Feb-19 17:56N 46°30' W 001°47'0 0.0
2018-Feb-19 17:30N 46°30' W 001°47'0 0.0
2018-Feb-19 17:00N 46°30' W 001°47'0 0.0
2018-Feb-19 16:30N 46°30' W 001°47'0 0.0
2018-Feb-19 16:00N 46°30' W 001°47'0 0.0
2018-Feb-19 15:30N 46°30' W 001°47'0 0.0
2018-Feb-19 14:59N 46°30' W 001°47'0 0.0
2018-Feb-19 14:30N 46°30' W 001°47'0 0.0
2018-Feb-19 14:00N 46°30' W 001°47'0 0.0
2018-Feb-19 13:30N 46°30' W 001°47'0 0.0
2018-Feb-19 13:00N 46°30' W 001°47'0 0.0
2018-Feb-19 12:30N 46°30' W 001°47'0 0.0
2018-Feb-19 12:00N 46°30' W 001°47'0 0.0
2018-Feb-19 11:30N 46°30' W 001°47'0 0.0
2018-Feb-19 11:00N 46°30' W 001°47'0 0.0
2018-Feb-19 10:30N 46°30' W 001°47'0 0.0
2018-Feb-19 10:00N 46°30' W 001°47'0 0.0
2018-Feb-19 09:29N 46°30' W 001°47'0 0.0
2018-Feb-19 09:00N 46°30' W 001°47'0 0.0
2018-Feb-19 08:30N 46°30' W 001°47'0 0.0
2018-Feb-19 08:00N 46°30' W 001°47'0 0.0
2018-Feb-19 07:30N 46°30' W 001°47'0 0.0
2018-Feb-19 07:00N 46°30' W 001°47'0 0.0
2018-Feb-19 06:30N 46°30' W 001°47'0 0.0
2018-Feb-19 06:00N 46°30' W 001°47'0 0.0
2018-Feb-19 05:30N 46°30' W 001°47'0 0.0
2018-Feb-19 05:00N 46°30' W 001°47'0 0.0
2018-Feb-19 04:30N 46°30' W 001°47'0 0.0
2018-Feb-19 04:00N 46°30' W 001°47'0 0.0
2018-Feb-19 03:30N 46°30' W 001°47'0 0.0
2018-Feb-19 03:00N 46°30' W 001°47'0 0.0
2018-Feb-19 02:30N 46°30' W 001°47'0 0.0
2018-Feb-19 02:00N 46°30' W 001°47'0 0.0
2018-Feb-19 01:30N 46°30' W 001°47'0 0.0
2018-Feb-19 01:00N 46°30' W 001°47'0 0.0
2018-Feb-19 00:30N 46°30' W 001°47'0 0.0
2018-Feb-19 00:00N 46°30' W 001°47'0 0.0
2018-Feb-18 23:30N 46°30' W 001°47'0 0.0
2018-Feb-18 23:00N 46°30' W 001°47'0 0.0
2018-Feb-18 22:30N 46°30' W 001°47'0 0.0
2018-Feb-18 22:00N 46°30' W 001°47'0 0.0
2018-Feb-18 21:30N 46°30' W 001°47'0 0.0
2018-Feb-18 21:00N 46°30' W 001°47'0 0.0
2018-Feb-18 20:30N 46°30' W 001°47'0 0.0
2018-Feb-18 20:00N 46°30' W 001°47'0 0.0
2018-Feb-18 19:30N 46°30' W 001°47'0 0.0
2018-Feb-18 19:00N 46°30' W 001°47'0 0.0
2018-Feb-18 18:30N 46°30' W 001°47'0 0.0
2018-Feb-18 18:00N 46°30' W 001°47'0 0.0
2018-Feb-18 17:30N 46°30' W 001°47'0 0.0
2018-Feb-18 17:00N 46°30' W 001°47'0 0.0
2018-Feb-18 16:30N 46°30' W 001°47'0 0.0
2018-Feb-18 16:00N 46°30' W 001°47'0 0.0
2018-Feb-18 15:30N 46°30' W 001°47'0 0.0
2018-Feb-18 15:00N 46°30' W 001°47'0 0.0
2018-Feb-18 14:30N 46°30' W 001°47'0 0.0
2018-Feb-18 14:00N 46°30' W 001°47'0 0.0
2018-Feb-18 13:30N 46°30' W 001°47'0 0.0
2018-Feb-18 13:00N 46°30' W 001°47'0 0.0
2018-Feb-18 12:30N 46°30' W 001°47'0 0.0
2018-Feb-18 12:00N 46°30' W 001°47'0 0.0
2018-Feb-18 11:30N 46°30' W 001°47'0 0.0
2018-Feb-18 11:00N 46°30' W 001°47'0 0.0
2018-Feb-18 10:30N 46°30' W 001°47'0 0.0
2018-Feb-18 10:00N 46°30' W 001°47'0 0.0
2018-Feb-18 09:30N 46°30' W 001°47'0 0.0
2018-Feb-18 09:00N 46°30' W 001°47'0 0.0
2018-Feb-18 08:30N 46°30' W 001°47'0 0.0
2018-Feb-18 08:00N 46°30' W 001°47'0 0.0
2018-Feb-18 07:30N 46°30' W 001°47'0 0.0
2018-Feb-18 07:00N 46°30' W 001°47'0 0.0
2018-Feb-18 06:30N 46°30' W 001°47'0 0.0
2018-Feb-18 06:00N 46°30' W 001°47'0 0.0
2018-Feb-18 05:30N 46°30' W 001°47'0 0.0
2018-Feb-18 05:00N 46°30' W 001°47'0 0.0
2018-Feb-18 04:30N 46°30' W 001°47'0 0.0
2018-Feb-18 04:00N 46°30' W 001°47'0 0.0
2018-Feb-18 03:29N 46°30' W 001°47'0 0.0
2018-Feb-18 03:00N 46°30' W 001°47'0 0.0
2018-Feb-18 02:30N 46°30' W 001°47'0 0.0
2018-Feb-18 02:00N 46°30' W 001°47'0 0.0
2018-Feb-18 01:30N 46°30' W 001°47'0 0.0
2018-Feb-18 01:00N 46°30' W 001°47'0 0.0
2018-Feb-18 00:30N 46°30' W 001°47'0 0.0
2018-Feb-18 00:00N 46°30' W 001°47'0 0.0
2018-Feb-17 23:30N 46°30' W 001°47'0 0.0
2018-Feb-17 22:59N 46°30' W 001°47'0 0.0
2018-Feb-17 22:30N 46°30' W 001°47'0 0.0
2018-Feb-17 22:00N 46°30' W 001°47'0 0.0
2018-Feb-17 21:30N 46°30' W 001°47'0 0.0
2018-Feb-17 21:00N 46°30' W 001°47'0 0.0
2018-Feb-17 20:29N 46°30' W 001°47'0 0.0
2018-Feb-17 20:00N 46°30' W 001°47'0 0.0
2018-Feb-17 19:30N 46°30' W 001°47'0 0.0
2018-Feb-17 19:00N 46°30' W 001°47'0 0.0
2018-Feb-17 18:30N 46°30' W 001°47'0 0.0
2018-Feb-17 18:00N 46°30' W 001°47'0 0.0
2018-Feb-17 17:30N 46°30' W 001°47'0 0.0
2018-Feb-17 17:00N 46°30' W 001°47'0 0.0
2018-Feb-17 16:30N 46°30' W 001°47'0 0.0
2018-Feb-17 16:00N 46°30' W 001°47'0 0.0
2018-Feb-17 15:30N 46°30' W 001°47'0 0.0
2018-Feb-17 15:00N 46°30' W 001°47'0 0.0
2018-Feb-17 14:30N 46°30' W 001°47'0 0.0
2018-Feb-17 14:00N 46°30' W 001°47'0 0.0
2018-Feb-17 13:30N 46°30' W 001°47'0 0.0
2018-Feb-17 13:00N 46°30' W 001°47'0 0.0
2018-Feb-17 12:30N 46°30' W 001°47'0 0.0
2018-Feb-17 12:00N 46°30' W 001°47'0 0.0
2018-Feb-17 11:30N 46°30' W 001°47'0 0.0
2018-Feb-17 11:00N 46°30' W 001°47'0 0.0
2018-Feb-17 10:30N 46°30' W 001°47'0 0.0
2018-Feb-17 10:00N 46°30' W 001°47'0 0.0
2018-Feb-17 09:30N 46°30' W 001°47'0 0.0
2018-Feb-17 09:00N 46°30' W 001°47'0 0.0
2018-Feb-17 08:30N 46°30' W 001°47'0 0.0
2018-Feb-17 08:00N 46°30' W 001°47'0 0.0
2018-Feb-17 07:30N 46°30' W 001°47'0 0.0
2018-Feb-17 07:00N 46°30' W 001°47'0 0.0
2018-Feb-17 06:30N 46°30' W 001°47'0 0.0
2018-Feb-17 06:00N 46°30' W 001°47'0 0.0
2018-Feb-17 05:30N 46°30' W 001°47'0 0.0
2018-Feb-17 05:00N 46°30' W 001°47'0 0.0
2018-Feb-17 04:30N 46°30' W 001°47'0 0.0
2018-Feb-17 04:00N 46°30' W 001°47'0 0.0
2018-Feb-17 03:29N 46°30' W 001°47'0 0.0
2018-Feb-17 02:59N 46°30' W 001°47'0 0.0
2018-Feb-17 02:30N 46°30' W 001°47'0 0.0
2018-Feb-17 02:00N 46°30' W 001°47'0 0.0
2018-Feb-17 01:30N 46°30' W 001°47'0 0.0
2018-Feb-17 01:00N 46°30' W 001°47'0 0.0
2018-Feb-17 00:30N 46°30' W 001°47'0 0.0
2018-Feb-17 00:00N 46°30' W 001°47'0 0.0
2018-Feb-16 23:30N 46°30' W 001°47'0 0.0
2018-Feb-16 23:00N 46°30' W 001°47'0 0.0
2018-Feb-16 22:30N 46°30' W 001°47'0 0.0
2018-Feb-16 22:00N 46°30' W 001°47'0 0.0
2018-Feb-16 21:30N 46°30' W 001°47'0 0.0
2018-Feb-16 20:59N 46°30' W 001°47'0 0.0
2018-Feb-16 20:30N 46°30' W 001°47'0 0.0
2018-Feb-16 20:00N 46°30' W 001°47'0 0.0
2018-Feb-16 19:30N 46°30' W 001°47'0 0.0
2018-Feb-16 19:00N 46°30' W 001°47'0 0.0
2018-Feb-16 18:30N 46°30' W 001°47'0 0.0
2018-Feb-16 18:00N 46°30' W 001°47'0 0.0
2018-Feb-16 17:30N 46°30' W 001°47'0 0.0
2018-Feb-16 17:00N 46°30' W 001°47'0 0.0
2018-Feb-16 16:30N 46°30' W 001°47'0 0.0
2018-Feb-16 16:00N 46°30' W 001°47'0 0.0
2018-Feb-16 15:30N 46°30' W 001°47'0 0.0
2018-Feb-16 15:00N 46°30' W 001°47'0 0.0
2018-Feb-16 14:30N 46°30' W 001°47'0 0.0
2018-Feb-16 14:00N 46°30' W 001°47'0 0.0
2018-Feb-16 13:30N 46°30' W 001°47'0 0.0
2018-Feb-16 13:00N 46°30' W 001°47'0 0.0
2018-Feb-16 12:30N 46°30' W 001°47'0 0.0
2018-Feb-16 12:00N 46°30' W 001°47'0 0.0
2018-Feb-16 11:30N 46°30' W 001°47'0 0.0
2018-Feb-16 11:00N 46°30' W 001°47'0 0.0
2018-Feb-16 10:30N 46°30' W 001°47'0 0.0
2018-Feb-16 10:00N 46°30' W 001°47'0 0.0
2018-Feb-16 09:30N 46°30' W 001°47'0 0.0
2018-Feb-16 09:00N 46°30' W 001°47'0 0.0
2018-Feb-16 08:29N 46°30' W 001°47'0 0.0
2018-Feb-16 08:00N 46°30' W 001°47'0 0.0
2018-Feb-16 07:30N 46°30' W 001°47'0 0.0
2018-Feb-16 07:00N 46°30' W 001°47'0 0.0
2018-Feb-16 06:30N 46°30' W 001°47'0 0.0
2018-Feb-16 06:00N 46°30' W 001°47'0 0.0
2018-Feb-16 05:30N 46°30' W 001°47'0 0.0
2018-Feb-16 05:00N 46°30' W 001°47'0 0.0
2018-Feb-16 04:29N 46°30' W 001°47'0 0.0
2018-Feb-16 04:00N 46°30' W 001°47'0 0.0
2018-Feb-16 03:30N 46°30' W 001°47'0 0.0
2018-Feb-16 03:00N 46°30' W 001°47'0 0.0
2018-Feb-16 02:30N 46°30' W 001°47'0 0.0
2018-Feb-16 02:00N 46°30' W 001°47'0 0.0
2018-Feb-16 01:30N 46°30' W 001°47'0 0.0
2018-Feb-16 01:00N 46°30' W 001°47'0 0.0
2018-Feb-16 00:30N 46°30' W 001°47'0 0.0
2018-Feb-16 00:00N 46°30' W 001°47'0 0.0
2018-Feb-15 23:30N 46°30' W 001°47'0 0.0
2018-Feb-15 23:00N 46°30' W 001°47'0 0.0
2018-Feb-15 22:30N 46°30' W 001°47'0 0.0
2018-Feb-15 22:00N 46°30' W 001°47'0 0.0
2018-Feb-15 21:30N 46°30' W 001°47'0 0.0
2018-Feb-15 21:00N 46°30' W 001°47'0 0.0
2018-Feb-15 20:30N 46°30' W 001°47'0 0.0
2018-Feb-15 20:00N 46°30' W 001°47'0 0.0
2018-Feb-15 19:30N 46°30' W 001°47'0 0.0
2018-Feb-15 19:00N 46°30' W 001°47'0 0.0
2018-Feb-15 18:27N 46°30' W 001°47'0 0.0
2018-Feb-15 18:00N 46°30' W 001°47'0 0.0
2018-Feb-15 17:30N 46°30' W 001°47'0 0.0
2018-Feb-15 16:59N 46°30' W 001°47'0 0.0
2018-Feb-15 16:30N 46°30' W 001°47'0 0.0
2018-Feb-15 16:00N 46°30' W 001°47'0 0.0
2018-Feb-15 15:30N 46°30' W 001°47'0 0.0
2018-Feb-15 15:00N 46°30' W 001°47'0 0.0
2018-Feb-15 14:30N 46°30' W 001°47'0 0.0
2018-Feb-15 14:00N 46°30' W 001°47'0 0.0
2018-Feb-15 13:30N 46°30' W 001°47'0 0.0
2018-Feb-15 13:00N 46°30' W 001°47'0 0.0
2018-Feb-15 12:30N 46°30' W 001°47'0 0.0
2018-Feb-15 12:00N 46°30' W 001°47'0 0.0
2018-Feb-15 11:30N 46°30' W 001°47'0 0.0
2018-Feb-15 11:00N 46°30' W 001°47'0 0.0
2018-Feb-15 10:30N 46°30' W 001°47'0 0.0
2018-Feb-15 10:00N 46°30' W 001°47'0 0.0
2018-Feb-15 09:30N 46°30' W 001°47'0 0.0
2018-Feb-15 09:00N 46°30' W 001°47'0 0.0
2018-Feb-15 08:30N 46°30' W 001°47'0 0.0
2018-Feb-15 08:00N 46°30' W 001°47'0 0.0
2018-Feb-15 07:30N 46°30' W 001°47'0 0.0
2018-Feb-15 07:00N 46°30' W 001°47'0 0.0
2018-Feb-15 06:30N 46°30' W 001°47'0 0.0
2018-Feb-15 06:00N 46°30' W 001°47'0 0.0
2018-Feb-15 05:30N 46°30' W 001°47'0 0.0
2018-Feb-15 05:00N 46°30' W 001°47'0 0.0
2018-Feb-15 04:30N 46°30' W 001°47'0 0.0
2018-Feb-15 04:00N 46°30' W 001°47'0 0.0
2018-Feb-15 03:30N 46°30' W 001°47'0 0.0
2018-Feb-15 03:00N 46°30' W 001°47'0 0.0
2018-Feb-15 02:30N 46°30' W 001°47'0 0.0
2018-Feb-15 02:00N 46°30' W 001°47'0 0.0
2018-Feb-15 01:28N 46°30' W 001°47'0 0.0
2018-Feb-15 01:00N 46°30' W 001°47'0 0.0
2018-Feb-15 00:30N 46°30' W 001°47'0 0.0
2018-Feb-15 00:00N 46°30' W 001°47'0 0.0
2018-Feb-14 23:30N 46°30' W 001°47'0 0.0
2018-Feb-14 23:00N 46°30' W 001°47'0 0.0
2018-Feb-14 22:30N 46°30' W 001°47'0 0.0
2018-Feb-14 22:00N 46°30' W 001°47'0 0.0
2018-Feb-14 21:30N 46°30' W 001°47'0 0.0
2018-Feb-14 21:00N 46°30' W 001°47'0 0.0
2018-Feb-14 20:30N 46°30' W 001°47'0 0.0
2018-Feb-14 20:00N 46°30' W 001°47'0 0.0
2018-Feb-14 19:29N 46°30' W 001°47'0 0.0
2018-Feb-14 19:00N 46°30' W 001°47'0 0.0
2018-Feb-14 18:30N 46°30' W 001°47'0 0.0
2018-Feb-14 18:00N 46°30' W 001°47'0 0.0
2018-Feb-14 17:30N 46°30' W 001°47'0 0.0
2018-Feb-14 17:00N 46°30' W 001°47'0 0.0
2018-Feb-14 16:30N 46°30' W 001°47'0 0.0
2018-Feb-14 16:00N 46°30' W 001°47'0 0.0
2018-Feb-14 15:30N 46°30' W 001°47'0 0.0
2018-Feb-14 15:00N 46°30' W 001°47'0 0.0
2018-Feb-14 14:30N 46°30' W 001°47'0 0.0
2018-Feb-14 14:00N 46°30' W 001°47'0 0.0
2018-Feb-14 13:30N 46°30' W 001°47'0 0.0
2018-Feb-14 13:00N 46°30' W 001°47'0 0.0
2018-Feb-14 12:30N 46°30' W 001°47'0 0.0
2018-Feb-14 12:00N 46°30' W 001°47'  
Track history (hours):
 
Tides and Currents Weather Stations Pressure Air Temp Water Temp Dewpoint Dewpoint Depression Visibility Wind Speed Wind Dir Waves Ship Positions

F/V Manbrisa

Last reported at 2018-Feb-24 12:00 UTC. Time now 2018-Feb-24 12:17 UTC.
Position N 44°31' W 001°29'.

Length 18 m.

Type: Fishing. MMSI: 228229900.

Date/timePositionNaut miles runAvg speedWind from/ knotsBaromVisibWave heightAir tempDewpointWater temp
2018-Feb-24 12:00N 44°31' W 001°29'0 0.5
2018-Feb-24 11:24N 44°31' W 001°29'0 0.2
2018-Feb-24 11:01N 44°31' W 001°29'1 1.3
2018-Feb-24 10:11N 44°31' W 001°30'0 1.8
2018-Feb-24 10:00N 44°31' W 001°30'1 1.7
2018-Feb-24 09:30N 44°32' W 001°31'0 0.6
2018-Feb-24 09:01N 44°32' W 001°30'0 0.9
2018-Feb-24 08:30N 44°32' W 001°30'1 1.7
2018-Feb-24 08:00N 44°33' W 001°30'1 2.9
2018-Feb-24 07:30N 44°34' W 001°29'2 4.7
2018-Feb-24 07:00N 44°35' W 001°32'510.1
2018-Feb-24 06:31N 44°40' W 001°33'5 9.9
2018-Feb-24 06:01N 44°45' W 001°34'5 9.8
2018-Feb-24 05:28N 44°50' W 001°35'4 9.8
2018-Feb-24 05:00N 44°55' W 001°35'68 9.7
2018-Feb-23 22:00N 46°03' W 001°44'5 9.9
2018-Feb-23 21:28N 46°08' W 001°44'5 9.9
2018-Feb-23 21:00N 46°13' W 001°45'5 9.9
2018-Feb-23 20:30N 46°18' W 001°46'5 9.9
2018-Feb-23 20:00N 46°22' W 001°46'5 9.6
2018-Feb-23 19:30N 46°27' W 001°47'3 5.4
2018-Feb-23 19:00N 46°30' W 001°48'0 0.0
2018-Feb-23 18:30N 46°30' W 001°48'0 0.0
2018-Feb-23 18:00N 46°30' W 001°48'0 0.0
2018-Feb-23 17:30N 46°30' W 001°48'0 0.0
2018-Feb-23 17:00N 46°30' W 001°48'0 0.0
2018-Feb-23 16:30N 46°30' W 001°48'0 0.0
2018-Feb-23 16:00N 46°30' W 001°48'0 0.0
2018-Feb-23 15:30N 46°30' W 001°48'0 0.0
2018-Feb-23 15:00N 46°30' W 001°48'0 0.0
2018-Feb-23 14:30N 46°30' W 001°48'0 0.0
2018-Feb-23 14:00N 46°30' W 001°48'0 0.0
2018-Feb-23 13:30N 46°30' W 001°48'0 0.1
2018-Feb-23 13:00N 46°30' W 001°48'0 0.1
2018-Feb-23 12:30N 46°30' W 001°48'0 0.0
2018-Feb-23 12:00N 46°30' W 001°48'0 0.0
2018-Feb-23 11:30N 46°30' W 001°48'3 5.3
2018-Feb-23 11:00N 46°27' W 001°47'1 2.6
2018-Feb-23 10:30N 46°28' W 001°48'2 3.6
2018-Feb-23 10:00N 46°30' W 001°47'0 0.0
2018-Feb-23 09:30N 46°30' W 001°47'0 0.0
2018-Feb-23 09:00N 46°30' W 001°47'0 0.0
2018-Feb-23 08:30N 46°30' W 001°47'0 0.0
2018-Feb-23 08:00N 46°30' W 001°47'0 0.1
2018-Feb-23 07:30N 46°30' W 001°47'0 0.0
2018-Feb-23 07:00N 46°30' W 001°47'0 0.0
2018-Feb-23 06:30N 46°30' W 001°47'0 0.0
2018-Feb-23 06:00N 46°30' W 001°47'0 0.0
2018-Feb-23 05:30N 46°30' W 001°47'0 0.0
2018-Feb-23 05:00N 46°30' W 001°47'0 0.0
2018-Feb-23 04:30N 46°30' W 001°47'0 0.0
2018-Feb-23 04:00N 46°30' W 001°47'0 0.0
2018-Feb-23 03:30N 46°30' W 001°47'0 0.0
2018-Feb-23 03:00N 46°30' W 001°47'0 0.0
2018-Feb-23 02:30N 46°30' W 001°47'0 0.0
2018-Feb-23 02:00N 46°30' W 001°47'0 0.0
2018-Feb-23 01:30N 46°30' W 001°47'0 0.0
2018-Feb-23 01:00N 46°30' W 001°47'0 0.0
2018-Feb-23 00:30N 46°30' W 001°47'0 0.0
2018-Feb-23 00:00N 46°30' W 001°47'0 0.0
2018-Feb-22 23:30N 46°30' W 001°47'0 0.0
2018-Feb-22 23:00N 46°30' W 001°47'0 0.0
2018-Feb-22 22:30N 46°30' W 001°47'0 0.0
2018-Feb-22 22:00N 46°30' W 001°47'0 0.0
2018-Feb-22 21:30N 46°30' W 001°47'0 0.0
2018-Feb-22 21:00N 46°30' W 001°47'0 0.0
2018-Feb-22 20:30N 46°30' W 001°47'0 0.0
2018-Feb-22 20:00N 46°30' W 001°47'0 0.0
2018-Feb-22 19:30N 46°30' W 001°47'0 0.0
2018-Feb-22 19:00N 46°30' W 001°47'0 0.0
2018-Feb-22 18:30N 46°30' W 001°47'0 0.0
2018-Feb-22 18:00N 46°30' W 001°47'0 0.0
2018-Feb-22 17:30N 46°30' W 001°47'0 0.0
2018-Feb-22 17:00N 46°30' W 001°47'0 0.0
2018-Feb-22 16:30N 46°30' W 001°47'0 0.0
2018-Feb-22 16:00N 46°30' W 001°47'0 0.0
2018-Feb-22 15:30N 46°30' W 001°47'0 0.0
2018-Feb-22 15:00N 46°30' W 001°47'0 0.0
2018-Feb-22 14:30N 46°30' W 001°47'0 0.0
2018-Feb-22 14:00N 46°30' W 001°47'0 0.0
2018-Feb-22 13:30N 46°30' W 001°47'0 0.0
2018-Feb-22 13:00N 46°30' W 001°47'0 0.0
2018-Feb-22 12:30N 46°30' W 001°47'0 0.0
2018-Feb-22 12:00N 46°30' W 001°47'0 0.0
2018-Feb-22 11:30N 46°30' W 001°47'0 0.0
2018-Feb-22 11:00N 46°30' W 001°47'0 0.0
2018-Feb-22 10:30N 46°30' W 001°47'0 0.0
2018-Feb-22 10:00N 46°30' W 001°47'0 0.0
2018-Feb-22 09:30N 46°30' W 001°47'0 0.0
2018-Feb-22 09:00N 46°30' W 001°47'0 0.0
2018-Feb-22 08:30N 46°30' W 001°47'0 0.1
2018-Feb-22 08:00N 46°30' W 001°47'0 0.0
2018-Feb-22 07:30N 46°30' W 001°47'0 0.1
2018-Feb-22 07:00N 46°30' W 001°47'0 0.0
2018-Feb-22 06:30N 46°30' W 001°47'0 0.0
2018-Feb-22 06:00N 46°30' W 001°47'0 0.0
2018-Feb-22 05:30N 46°30' W 001°47'0 0.0
2018-Feb-22 05:00N 46°30' W 001°47'0 0.0
2018-Feb-22 04:30N 46°30' W 001°47'0 0.0
2018-Feb-22 03:59N 46°30' W 001°47'0 0.0
2018-Feb-22 03:30N 46°30' W 001°47'0 0.0
2018-Feb-22 03:00N 46°30' W 001°47'0 0.0
2018-Feb-22 02:30N 46°30' W 001°47'0 0.0
2018-Feb-22 02:00N 46°30' W 001°47'0 0.0
2018-Feb-22 01:30N 46°30' W 001°47'0 0.0
2018-Feb-22 01:00N 46°30' W 001°47'0 0.0
2018-Feb-22 00:30N 46°30' W 001°47'0 0.0
2018-Feb-22 00:00N 46°30' W 001°47'0 0.0
2018-Feb-21 23:30N 46°30' W 001°47'0 0.0
2018-Feb-21 23:00N 46°30' W 001°47'0 0.0
2018-Feb-21 22:29N 46°30' W 001°47'0 0.0
2018-Feb-21 22:00N 46°30' W 001°47'0 0.0
2018-Feb-21 21:30N 46°30' W 001°47'0 0.0
2018-Feb-21 21:00N 46°30' W 001°47'0 0.0
2018-Feb-21 20:30N 46°30' W 001°47'0 0.0
2018-Feb-21 20:00N 46°30' W 001°47'0 0.0
2018-Feb-21 19:30N 46°30' W 001°47'0 0.0
2018-Feb-21 19:00N 46°30' W 001°47'0 0.0
2018-Feb-21 18:30N 46°30' W 001°47'0 0.0
2018-Feb-21 18:00N 46°30' W 001°47'0 0.0
2018-Feb-21 17:30N 46°30' W 001°47'0 0.0
2018-Feb-21 17:00N 46°30' W 001°47'0 0.0
2018-Feb-21 16:30N 46°30' W 001°47'0 0.0
2018-Feb-21 16:00N 46°30' W 001°47'0 0.0
2018-Feb-21 15:30N 46°30' W 001°47'0 0.0
2018-Feb-21 15:00N 46°30' W 001°47'0 0.0
2018-Feb-21 14:30N 46°30' W 001°47'0 0.0
2018-Feb-21 14:00N 46°30' W 001°47'0 0.0
2018-Feb-21 13:30N 46°30' W 001°47'0 0.0
2018-Feb-21 13:00N 46°30' W 001°47'0 0.0
2018-Feb-21 12:30N 46°30' W 001°47'0 0.0
2018-Feb-21 12:00N 46°30' W 001°47'0 0.0
2018-Feb-21 11:30N 46°30' W 001°47'0 0.0
2018-Feb-21 10:58N 46°30' W 001°47'0 0.0
2018-Feb-21 10:30N 46°30' W 001°47'0 0.0
2018-Feb-21 09:59N 46°30' W 001°47'0 0.0
2018-Feb-21 09:30N 46°30' W 001°47'0 0.0
2018-Feb-21 09:00N 46°30' W 001°47'0 0.0
2018-Feb-21 08:30N 46°30' W 001°47'0 0.0
2018-Feb-21 08:00N 46°30' W 001°47'0 0.0
2018-Feb-21 07:30N 46°30' W 001°47'0 0.0
2018-Feb-21 07:00N 46°30' W 001°47'0 0.0
2018-Feb-21 06:30N 46°30' W 001°47'0 0.0
2018-Feb-21 06:00N 46°30' W 001°47'0 0.0
2018-Feb-21 05:30N 46°30' W 001°47'0 0.0
2018-Feb-21 05:00N 46°30' W 001°47'0 0.0
2018-Feb-21 04:29N 46°30' W 001°47'0 0.0
2018-Feb-21 04:00N 46°30' W 001°47'0 0.0
2018-Feb-21 03:30N 46°30' W 001°47'0 0.0
2018-Feb-21 03:00N 46°30' W 001°47'0 0.0
2018-Feb-21 02:30N 46°30' W 001°47'0 0.0
2018-Feb-21 02:00N 46°30' W 001°47'0 0.0
2018-Feb-21 01:30N 46°30' W 001°47'0 0.0
2018-Feb-21 01:00N 46°30' W 001°47'0 0.0
2018-Feb-21 00:30N 46°30' W 001°47'0 0.0
2018-Feb-21 00:00N 46°30' W 001°47'0 0.0
2018-Feb-20 23:30N 46°30' W 001°47'0 0.0
2018-Feb-20 23:00N 46°30' W 001°47'0 0.0
2018-Feb-20 22:30N 46°30' W 001°47'0 0.0
2018-Feb-20 22:00N 46°30' W 001°47'0 0.0
2018-Feb-20 21:30N 46°30' W 001°47'0 0.0
2018-Feb-20 21:00N 46°30' W 001°47'0 0.0
2018-Feb-20 20:30N 46°30' W 001°47'0 0.0
2018-Feb-20 20:00N 46°30' W 001°47'0 0.0
2018-Feb-20 19:30N 46°30' W 001°47'0 0.0
2018-Feb-20 19:00N 46°30' W 001°47'0 0.0
2018-Feb-20 18:30N 46°30' W 001°47'0 0.0
2018-Feb-20 18:00N 46°30' W 001°47'0 0.0
2018-Feb-20 17:30N 46°30' W 001°47'0 0.0
2018-Feb-20 17:00N 46°30' W 001°47'0 0.0
2018-Feb-20 16:29N 46°30' W 001°47'0 0.0
2018-Feb-20 16:00N 46°30' W 001°47'0 0.0
2018-Feb-20 15:30N 46°30' W 001°47'0 0.0
2018-Feb-20 15:00N 46°30' W 001°47'0 0.0
2018-Feb-20 14:30N 46°30' W 001°47'0 0.0
2018-Feb-20 14:00N 46°30' W 001°47'0 0.0
2018-Feb-20 13:30N 46°30' W 001°47'0 0.0
2018-Feb-20 13:00N 46°30' W 001°47'0 0.0
2018-Feb-20 12:30N 46°30' W 001°47'0 0.0
2018-Feb-20 12:00N 46°30' W 001°47'0 0.0
2018-Feb-20 11:30N 46°30' W 001°47'0 0.0
2018-Feb-20 11:00N 46°30' W 001°47'0 0.0
2018-Feb-20 10:30N 46°30' W 001°47'0 0.0
2018-Feb-20 09:59N 46°30' W 001°47'0 0.0
2018-Feb-20 09:30N 46°30' W 001°47'0 0.0
2018-Feb-20 09:00N 46°30' W 001°47'0 0.0
2018-Feb-20 08:30N 46°30' W 001°47'0 0.0
2018-Feb-20 08:00N 46°30' W 001°47'0 0.0
2018-Feb-20 07:30N 46°30' W 001°47'0 0.0
2018-Feb-20 07:00N 46°30' W 001°47'0 0.0
2018-Feb-20 06:30N 46°30' W 001°47'0 0.0
2018-Feb-20 06:00N 46°30' W 001°47'0 0.0
2018-Feb-20 05:30N 46°30' W 001°47'0 0.0
2018-Feb-20 05:00N 46°30' W 001°47'0 0.0
2018-Feb-20 04:30N 46°30' W 001°47'0 0.0
2018-Feb-20 04:00N 46°30' W 001°47'0 0.0
2018-Feb-20 03:30N 46°30' W 001°47'0 0.0
2018-Feb-20 03:00N 46°30' W 001°47'0 0.0
2018-Feb-20 02:30N 46°30' W 001°47'0 0.0
2018-Feb-20 02:00N 46°30' W 001°47'0 0.0
2018-Feb-20 01:30N 46°30' W 001°47'0 0.0
2018-Feb-20 01:00N 46°30' W 001°47'0 0.0
2018-Feb-20 00:30N 46°30' W 001°47'0 0.0
2018-Feb-20 00:00N 46°30' W 001°47'0 0.0
2018-Feb-19 23:30N 46°30' W 001°47'0 0.0
2018-Feb-19 23:00N 46°30' W 001°47'0 0.0
2018-Feb-19 22:30N 46°30' W 001°47'0 0.0
2018-Feb-19 22:00N 46°30' W 001°47'0 0.0
2018-Feb-19 21:30N 46°30' W 001°47'0 0.0
2018-Feb-19 21:00N 46°30' W 001°47'0 0.0
2018-Feb-19 20:30N 46°30' W 001°47'0 0.0
2018-Feb-19 20:00N 46°30' W 001°47'0 0.0
2018-Feb-19 19:30N 46°30' W 001°47'0 0.0
2018-Feb-19 19:00N 46°30' W 001°47'0 0.0
2018-Feb-19 18:30N 46°30' W 001°47'0 0.0
2018-Feb-19 17:56N 46°30' W 001°47'0 0.0
2018-Feb-19 17:30N 46°30' W 001°47'0 0.0
2018-Feb-19 17:00N 46°30' W 001°47'0 0.0
2018-Feb-19 16:30N 46°30' W 001°47'0 0.0
2018-Feb-19 16:00N 46°30' W 001°47'0 0.0
2018-Feb-19 15:30N 46°30' W 001°47'0 0.0
2018-Feb-19 14:59N 46°30' W 001°47'0 0.0
2018-Feb-19 14:30N 46°30' W 001°47'0 0.0
2018-Feb-19 14:00N 46°30' W 001°47'0 0.0
2018-Feb-19 13:30N 46°30' W 001°47'0 0.0
2018-Feb-19 13:00N 46°30' W 001°47'0 0.0
2018-Feb-19 12:30N 46°30' W 001°47'0 0.0
2018-Feb-19 12:00N 46°30' W 001°47'0 0.0
2018-Feb-19 11:30N 46°30' W 001°47'0 0.0
2018-Feb-19 11:00N 46°30' W 001°47'0 0.0
2018-Feb-19 10:30N 46°30' W 001°47'0 0.0
2018-Feb-19 10:00N 46°30' W 001°47'0 0.0
2018-Feb-19 09:29N 46°30' W 001°47'0 0.0
2018-Feb-19 09:00N 46°30' W 001°47'0 0.0
2018-Feb-19 08:30N 46°30' W 001°47'0 0.0
2018-Feb-19 08:00N 46°30' W 001°47'0 0.0
2018-Feb-19 07:30N 46°30' W 001°47'0 0.0
2018-Feb-19 07:00N 46°30' W 001°47'0 0.0
2018-Feb-19 06:30N 46°30' W 001°47'0 0.0
2018-Feb-19 06:00N 46°30' W 001°47'0 0.0
2018-Feb-19 05:30N 46°30' W 001°47'0 0.0
2018-Feb-19 05:00N 46°30' W 001°47'0 0.0
2018-Feb-19 04:30N 46°30' W 001°47'0 0.0
2018-Feb-19 04:00N 46°30' W 001°47'0 0.0
2018-Feb-19 03:30N 46°30' W 001°47'0 0.0
2018-Feb-19 03:00N 46°30' W 001°47'0 0.0
2018-Feb-19 02:30N 46°30' W 001°47'0 0.0
2018-Feb-19 02:00N 46°30' W 001°47'0 0.0
2018-Feb-19 01:30N 46°30' W 001°47'0 0.0
2018-Feb-19 01:00N 46°30' W 001°47'0 0.0
2018-Feb-19 00:30N 46°30' W 001°47'0 0.0
2018-Feb-19 00:00N 46°30' W 001°47'0 0.0
2018-Feb-18 23:30N 46°30' W 001°47'0 0.0
2018-Feb-18 23:00N 46°30' W 001°47'0 0.0
2018-Feb-18 22:30N 46°30' W 001°47'0 0.0
2018-Feb-18 22:00N 46°30' W 001°47'0 0.0
2018-Feb-18 21:30N 46°30' W 001°47'0 0.0
2018-Feb-18 21:00N 46°30' W 001°47'0 0.0
2018-Feb-18 20:30N 46°30' W 001°47'0 0.0
2018-Feb-18 20:00N 46°30' W 001°47'0 0.0
2018-Feb-18 19:30N 46°30' W 001°47'0 0.0
2018-Feb-18 19:00N 46°30' W 001°47'0 0.0
2018-Feb-18 18:30N 46°30' W 001°47'0 0.0
2018-Feb-18 18:00N 46°30' W 001°47'0 0.0
2018-Feb-18 17:30N 46°30' W 001°47'0 0.0
2018-Feb-18 17:00N 46°30' W 001°47'0 0.0
2018-Feb-18 16:30N 46°30' W 001°47'0 0.0
2018-Feb-18 16:00N 46°30' W 001°47'0 0.0
2018-Feb-18 15:30N 46°30' W 001°47'0 0.0
2018-Feb-18 15:00N 46°30' W 001°47'0 0.0
2018-Feb-18 14:30N 46°30' W 001°47'0 0.0
2018-Feb-18 14:00N 46°30' W 001°47'0 0.0
2018-Feb-18 13:30N 46°30' W 001°47'0 0.0
2018-Feb-18 13:00N 46°30' W 001°47'0 0.0
2018-Feb-18 12:30N 46°30' W 001°47'0 0.0
2018-Feb-18 12:00N 46°30' W 001°47'0 0.0
2018-Feb-18 11:30N 46°30' W 001°47'0 0.0
2018-Feb-18 11:00N 46°30' W 001°47'0 0.0
2018-Feb-18 10:30N 46°30' W 001°47'0 0.0
2018-Feb-18 10:00N 46°30' W 001°47'0 0.0
2018-Feb-18 09:30N 46°30' W 001°47'0 0.0
2018-Feb-18 09:00N 46°30' W 001°47'0 0.0
2018-Feb-18 08:30N 46°30' W 001°47'0 0.0
2018-Feb-18 08:00N 46°30' W 001°47'0 0.0
2018-Feb-18 07:30N 46°30' W 001°47'0 0.0
2018-Feb-18 07:00N 46°30' W 001°47'0 0.0
2018-Feb-18 06:30N 46°30' W 001°47'0 0.0
2018-Feb-18 06:00N 46°30' W 001°47'0 0.0
2018-Feb-18 05:30N 46°30' W 001°47'0 0.0
2018-Feb-18 05:00N 46°30' W 001°47'0 0.0
2018-Feb-18 04:30N 46°30' W 001°47'0 0.0
2018-Feb-18 04:00N 46°30' W 001°47'0 0.0
2018-Feb-18 03:29N 46°30' W 001°47'0 0.0
2018-Feb-18 03:00N 46°30' W 001°47'0 0.0
2018-Feb-18 02:30N 46°30' W 001°47'0 0.0
2018-Feb-18 02:00N 46°30' W 001°47'0 0.0
2018-Feb-18 01:30N 46°30' W 001°47'0 0.0
2018-Feb-18 01:00N 46°30' W 001°47'0 0.0
2018-Feb-18 00:30N 46°30' W 001°47'0 0.0
2018-Feb-18 00:00N 46°30' W 001°47'0 0.0
2018-Feb-17 23:30N 46°30' W 001°47'0 0.0
2018-Feb-17 22:59N 46°30' W 001°47'0 0.0
2018-Feb-17 22:30N 46°30' W 001°47'0 0.0
2018-Feb-17 22:00N 46°30' W 001°47'0 0.0
2018-Feb-17 21:30N 46°30' W 001°47'0 0.0
2018-Feb-17 21:00N 46°30' W 001°47'0 0.0
2018-Feb-17 20:29N 46°30' W 001°47'0 0.0
2018-Feb-17 20:00N 46°30' W 001°47'0 0.0
2018-Feb-17 19:30N 46°30' W 001°47'0 0.0
2018-Feb-17 19:00N 46°30' W 001°47'0 0.0
2018-Feb-17 18:30N 46°30' W 001°47'0 0.0
2018-Feb-17 18:00N 46°30' W 001°47'0 0.0
2018-Feb-17 17:30N 46°30' W 001°47'0 0.0
2018-Feb-17 17:00N 46°30' W 001°47'0 0.0
2018-Feb-17 16:30N 46°30' W 001°47'0 0.0
2018-Feb-17 16:00N 46°30' W 001°47'0 0.0
2018-Feb-17 15:30N 46°30' W 001°47'0 0.0
2018-Feb-17 15:00N 46°30' W 001°47'0 0.0
2018-Feb-17 14:30N 46°30' W 001°47'0 0.0
2018-Feb-17 14:00N 46°30' W 001°47'0 0.0
2018-Feb-17 13:30N 46°30' W 001°47'0 0.0
2018-Feb-17 13:00N 46°30' W 001°47'0 0.0
2018-Feb-17 12:30N 46°30' W 001°47'0 0.0
2018-Feb-17 12:00N 46°30' W 001°47'0 0.0
2018-Feb-17 11:30N 46°30' W 001°47'0 0.0
2018-Feb-17 11:00N 46°30' W 001°47'0 0.0
2018-Feb-17 10:30N 46°30' W 001°47'0 0.0
2018-Feb-17 10:00N 46°30' W 001°47'0 0.0
2018-Feb-17 09:30N 46°30' W 001°47'0 0.0
2018-Feb-17 09:00N 46°30' W 001°47'0 0.0
2018-Feb-17 08:30N 46°30' W 001°47'0 0.0
2018-Feb-17 08:00N 46°30' W 001°47'0 0.0
2018-Feb-17 07:30N 46°30' W 001°47'0 0.0
2018-Feb-17 07:00N 46°30' W 001°47'0 0.0
2018-Feb-17 06:30N 46°30' W 001°47'0 0.0
2018-Feb-17 06:00N 46°30' W 001°47'0 0.0
2018-Feb-17 05:30N 46°30' W 001°47'0 0.0
2018-Feb-17 05:00N 46°30' W 001°47'0 0.0
2018-Feb-17 04:30N 46°30' W 001°47'0 0.0
2018-Feb-17 04:00N 46°30' W 001°47'0 0.0
2018-Feb-17 03:29N 46°30' W 001°47'0 0.0
2018-Feb-17 02:59N 46°30' W 001°47'0 0.0
2018-Feb-17 02:30N 46°30' W 001°47'0 0.0
2018-Feb-17 02:00N 46°30' W 001°47'0 0.0
2018-Feb-17 01:30N 46°30' W 001°47'0 0.0
2018-Feb-17 01:00N 46°30' W 001°47'0 0.0
2018-Feb-17 00:30N 46°30' W 001°47'0 0.0
2018-Feb-17 00:00N 46°30' W 001°47'0 0.0
2018-Feb-16 23:30N 46°30' W 001°47'0 0.0
2018-Feb-16 23:00N 46°30' W 001°47'0 0.0
2018-Feb-16 22:30N 46°30' W 001°47'0 0.0
2018-Feb-16 22:00N 46°30' W 001°47'0 0.0
2018-Feb-16 21:30N 46°30' W 001°47'0 0.0
2018-Feb-16 20:59N 46°30' W 001°47'0 0.0
2018-Feb-16 20:30N 46°30' W 001°47'0 0.0
2018-Feb-16 20:00N 46°30' W 001°47'0 0.0
2018-Feb-16 19:30N 46°30' W 001°47'0 0.0
2018-Feb-16 19:00N 46°30' W 001°47'0 0.0
2018-Feb-16 18:30N 46°30' W 001°47'0 0.0
2018-Feb-16 18:00N 46°30' W 001°47'0 0.0
2018-Feb-16 17:30N 46°30' W 001°47'0 0.0
2018-Feb-16 17:00N 46°30' W 001°47'0 0.0
2018-Feb-16 16:30N 46°30' W 001°47'0 0.0
2018-Feb-16 16:00N 46°30' W 001°47'0 0.0
2018-Feb-16 15:30N 46°30' W 001°47'0 0.0
2018-Feb-16 15:00N 46°30' W 001°47'0 0.0
2018-Feb-16 14:30N 46°30' W 001°47'0 0.0
2018-Feb-16 14:00N 46°30' W 001°47'0 0.0
2018-Feb-16 13:30N 46°30' W 001°47'0 0.0
2018-Feb-16 13:00N 46°30' W 001°47'0 0.0
2018-Feb-16 12:30N 46°30' W 001°47'0 0.0
2018-Feb-16 12:00N 46°30' W 001°47'0 0.0
2018-Feb-16 11:30N 46°30' W 001°47'0 0.0
2018-Feb-16 11:00N 46°30' W 001°47'0 0.0
2018-Feb-16 10:30N 46°30' W 001°47'0 0.0
2018-Feb-16 10:00N 46°30' W 001°47'0 0.0
2018-Feb-16 09:30N 46°30' W 001°47'0 0.0
2018-Feb-16 09:00N 46°30' W 001°47'0 0.0
2018-Feb-16 08:29N 46°30' W 001°47'0 0.0
2018-Feb-16 08:00N 46°30' W 001°47'0 0.0
2018-Feb-16 07:30N 46°30' W 001°47'0 0.0
2018-Feb-16 07:00N 46°30' W 001°47'0 0.0
2018-Feb-16 06:30N 46°30' W 001°47'0 0.0
2018-Feb-16 06:00N 46°30' W 001°47'0 0.0
2018-Feb-16 05:30N 46°30' W 001°47'0 0.0
2018-Feb-16 05:00N 46°30' W 001°47'0 0.0
2018-Feb-16 04:29N 46°30' W 001°47'0 0.0
2018-Feb-16 04:00N 46°30' W 001°47'0 0.0
2018-Feb-16 03:30N 46°30' W 001°47'0 0.0
2018-Feb-16 03:00N 46°30' W 001°47'0 0.0
2018-Feb-16 02:30N 46°30' W 001°47'0 0.0
2018-Feb-16 02:00N 46°30' W 001°47'0 0.0
2018-Feb-16 01:30N 46°30' W 001°47'0 0.0
2018-Feb-16 01:00N 46°30' W 001°47'0 0.0
2018-Feb-16 00:30N 46°30' W 001°47'0 0.0
2018-Feb-16 00:00N 46°30' W 001°47'0 0.0
2018-Feb-15 23:30N 46°30' W 001°47'0 0.0
2018-Feb-15 23:00N 46°30' W 001°47'0 0.0
2018-Feb-15 22:30N 46°30' W 001°47'0 0.0
2018-Feb-15 22:00N 46°30' W 001°47'0 0.0
2018-Feb-15 21:30N 46°30' W 001°47'0 0.0
2018-Feb-15 21:00N 46°30' W 001°47'0 0.0
2018-Feb-15 20:30N 46°30' W 001°47'0 0.0
2018-Feb-15 20:00N 46°30' W 001°47'0 0.0
2018-Feb-15 19:30N 46°30' W 001°47'0 0.0
2018-Feb-15 19:00N 46°30' W 001°47'0 0.0
2018-Feb-15 18:27N 46°30' W 001°47'0 0.0
2018-Feb-15 18:00N 46°30' W 001°47'0 0.0
2018-Feb-15 17:30N 46°30' W 001°47'0 0.0
2018-Feb-15 16:59N 46°30' W 001°47'0 0.0
2018-Feb-15 16:30N 46°30' W 001°47'0 0.0
2018-Feb-15 16:00N 46°30' W 001°47'0 0.0
2018-Feb-15 15:30N 46°30' W 001°47'0 0.0
2018-Feb-15 15:00N 46°30' W 001°47'0 0.0
2018-Feb-15 14:30N 46°30' W 001°47'0 0.0
2018-Feb-15 14:00N 46°30' W 001°47'0 0.0
2018-Feb-15 13:30N 46°30' W 001°47'0 0.0
2018-Feb-15 13:00N 46°30' W 001°47'0 0.0
2018-Feb-15 12:30N 46°30' W 001°47'0 0.0
2018-Feb-15 12:00N 46°30' W 001°47'0 0.0
2018-Feb-15 11:30N 46°30' W 001°47'0 0.0
2018-Feb-15 11:00N 46°30' W 001°47'0 0.0
2018-Feb-15 10:30N 46°30' W 001°47'0 0.0
2018-Feb-15 10:00N 46°30' W 001°47'0 0.0
2018-Feb-15 09:30N 46°30' W 001°47'0 0.0
2018-Feb-15 09:00N 46°30' W 001°47'0 0.0
2018-Feb-15 08:30N 46°30' W 001°47'0 0.0
2018-Feb-15 08:00N 46°30' W 001°47'0 0.0
2018-Feb-15 07:30N 46°30' W 001°47'0 0.0
2018-Feb-15 07:00N 46°30' W 001°47'0 0.0
2018-Feb-15 06:30N 46°30' W 001°47'0 0.0
2018-Feb-15 06:00N 46°30' W 001°47'0 0.0
2018-Feb-15 05:30N 46°30' W 001°47'0 0.0
2018-Feb-15 05:00N 46°30' W 001°47'0 0.0
2018-Feb-15 04:30N 46°30' W 001°47'0 0.0
2018-Feb-15 04:00N 46°30' W 001°47'0 0.0
2018-Feb-15 03:30N 46°30' W 001°47'0 0.0
2018-Feb-15 03:00N 46°30' W 001°47'0 0.0
2018-Feb-15 02:30N 46°30' W 001°47'0 0.0
2018-Feb-15 02:00N 46°30' W 001°47'0 0.0
2018-Feb-15 01:28N 46°30' W 001°47'0 0.0
2018-Feb-15 01:00N 46°30' W 001°47'0 0.0
2018-Feb-15 00:30N 46°30' W 001°47'0 0.0
2018-Feb-15 00:00N 46°30' W 001°47'0 0.0
2018-Feb-14 23:30N 46°30' W 001°47'0 0.0
2018-Feb-14 23:00N 46°30' W 001°47'0 0.0
2018-Feb-14 22:30N 46°30' W 001°47'0 0.0
2018-Feb-14 22:00N 46°30' W 001°47'0 0.0
2018-Feb-14 21:30N 46°30' W 001°47'0 0.0
2018-Feb-14 21:00N 46°30' W 001°47'0 0.0
2018-Feb-14 20:30N 46°30' W 001°47'0 0.0
2018-Feb-14 20:00N 46°30' W 001°47'0 0.0
2018-Feb-14 19:29N 46°30' W 001°47'0 0.0
2018-Feb-14 19:00N 46°30' W 001°47'0 0.0
2018-Feb-14 18:30N 46°30' W 001°47'0 0.0
2018-Feb-14 18:00N 46°30' W 001°47'0 0.0
2018-Feb-14 17:30N 46°30' W 001°47'0 0.0
2018-Feb-14 17:00N 46°30' W 001°47'0 0.0
2018-Feb-14 16:30N 46°30' W 001°47'0 0.0
2018-Feb-14 16:00N 46°30' W 001°47'0 0.0
2018-Feb-14 15:30N 46°30' W 001°47'0 0.0
2018-Feb-14 15:00N 46°30' W 001°47'0 0.0
2018-Feb-14 14:30N 46°30' W 001°47'0 0.0
2018-Feb-14 14:00N 46°30' W 001°47'0 0.0
2018-Feb-14 13:30N 46°30' W 001°47'0 0.0
2018-Feb-14 13:00N 46°30' W 001°47'0 0.0
2018-Feb-14 12:30N 46°30' W 001°47'0 0.0
2018-Feb-14 12:00N 46°30' W 001°47'  

Dump ship's entire track history